sensor_id;sensor_type;location;lat;lon;timestamp;P1;durP1;ratioP1;P2;durP2;ratioP2
1366;SDS011;16877;48.810;9.282;2023-03-25T00:02:07;2.47;;;1.10;;
1366;SDS011;16877;48.810;9.282;2023-03-25T00:04:37;3.63;;;1.53;;
1366;SDS011;16877;48.810;9.282;2023-03-25T00:07:05;2.67;;;1.20;;
1366;SDS011;16877;48.810;9.282;2023-03-25T00:09:35;2.37;;;1.20;;
1366;SDS011;16877;48.810;9.282;2023-03-25T00:12:02;3.90;;;1.13;;
1366;SDS011;16877;48.810;9.282;2023-03-25T00:14:30;2.50;;;1.13;;
1366;SDS011;16877;48.810;9.282;2023-03-25T00:16:58;2.27;;;0.80;;
1366;SDS011;16877;48.810;9.282;2023-03-25T00:19:26;4.73;;;1.00;;
1366;SDS011;16877;48.810;9.282;2023-03-25T00:21:56;1.80;;;0.90;;
1366;SDS011;16877;48.810;9.282;2023-03-25T00:24:23;3.23;;;0.90;;
1366;SDS011;16877;48.810;9.282;2023-03-25T00:26:51;2.90;;;1.10;;
1366;SDS011;16877;48.810;9.282;2023-03-25T00:29:19;2.10;;;0.90;;
1366;SDS011;16877;48.810;9.282;2023-03-25T00:31:46;2.17;;;0.60;;
1366;SDS011;16877;48.810;9.282;2023-03-25T00:34:13;2.03;;;0.77;;
1366;SDS011;16877;48.810;9.282;2023-03-25T00:36:41;2.03;;;0.60;;
1366;SDS011;16877;48.810;9.282;2023-03-25T00:39:11;2.43;;;0.70;;
1366;SDS011;16877;48.810;9.282;2023-03-25T00:41:39;2.00;;;0.73;;
1366;SDS011;16877;48.810;9.282;2023-03-25T00:44:08;1.90;;;0.60;;
1366;SDS011;16877;48.810;9.282;2023-03-25T00:46:38;1.90;;;0.77;;
1366;SDS011;16877;48.810;9.282;2023-03-25T00:49:05;1.97;;;0.87;;
1366;SDS011;16877;48.810;9.282;2023-03-25T00:51:33;2.47;;;0.77;;
1366;SDS011;16877;48.810;9.282;2023-03-25T00:54:00;2.10;;;0.70;;
1366;SDS011;16877;48.810;9.282;2023-03-25T00:56:29;2.67;;;0.80;;
1366;SDS011;16877;48.810;9.282;2023-03-25T00:58:57;3.40;;;0.83;;
1366;SDS011;16877;48.810;9.282;2023-03-25T01:01:25;2.67;;;0.80;;
1366;SDS011;16877;48.810;9.282;2023-03-25T01:03:53;1.90;;;0.77;;
1366;SDS011;16877;48.810;9.282;2023-03-25T01:06:24;3.00;;;0.93;;
1366;SDS011;16877;48.810;9.282;2023-03-25T01:08:56;2.03;;;0.70;;
1366;SDS011;16877;48.810;9.282;2023-03-25T01:11:25;1.80;;;0.83;;
1366;SDS011;16877;48.810;9.282;2023-03-25T01:13:55;3.53;;;1.10;;
1366;SDS011;16877;48.810;9.282;2023-03-25T01:16:23;2.63;;;1.10;;
1366;SDS011;16877;48.810;9.282;2023-03-25T01:18:51;2.63;;;1.00;;
1366;SDS011;16877;48.810;9.282;2023-03-25T01:21:19;3.10;;;1.10;;
1366;SDS011;16877;48.810;9.282;2023-03-25T01:23:47;2.73;;;0.97;;
1366;SDS011;16877;48.810;9.282;2023-03-25T01:26:14;2.30;;;0.80;;
1366;SDS011;16877;48.810;9.282;2023-03-25T01:28:42;4.10;;;1.10;;
1366;SDS011;16877;48.810;9.282;2023-03-25T01:31:12;2.70;;;1.10;;
1366;SDS011;16877;48.810;9.282;2023-03-25T01:33:40;3.40;;;1.27;;
1366;SDS011;16877;48.810;9.282;2023-03-25T01:36:09;2.33;;;1.10;;
1366;SDS011;16877;48.810;9.282;2023-03-25T01:38:38;2.20;;;1.00;;
1366;SDS011;16877;48.810;9.282;2023-03-25T01:41:06;2.13;;;1.00;;
1366;SDS011;16877;48.810;9.282;2023-03-25T01:43:34;2.27;;;0.90;;
1366;SDS011;16877;48.810;9.282;2023-03-25T01:46:02;2.73;;;1.00;;
1366;SDS011;16877;48.810;9.282;2023-03-25T01:48:32;3.33;;;1.13;;
1366;SDS011;16877;48.810;9.282;2023-03-25T01:51:02;3.20;;;1.10;;
1366;SDS011;16877;48.810;9.282;2023-03-25T01:53:33;2.60;;;0.80;;
1366;SDS011;16877;48.810;9.282;2023-03-25T01:56:01;3.67;;;1.10;;
1366;SDS011;16877;48.810;9.282;2023-03-25T01:58:31;2.30;;;1.10;;
1366;SDS011;16877;48.810;9.282;2023-03-25T02:01:00;3.00;;;1.20;;
1366;SDS011;16877;48.810;9.282;2023-03-25T02:03:28;2.43;;;1.03;;
1366;SDS011;16877;48.810;9.282;2023-03-25T02:06:01;2.87;;;0.97;;
1366;SDS011;16877;48.810;9.282;2023-03-25T02:08:31;2.37;;;0.93;;
1366;SDS011;16877;48.810;9.282;2023-03-25T02:11:04;2.77;;;1.37;;
1366;SDS011;16877;48.810;9.282;2023-03-25T02:13:32;3.43;;;1.27;;
1366;SDS011;16877;48.810;9.282;2023-03-25T02:16:06;2.20;;;0.83;;
1366;SDS011;16877;48.810;9.282;2023-03-25T02:18:49;4.97;;;1.10;;
1366;SDS011;16877;48.810;9.282;2023-03-25T02:21:45;3.57;;;1.03;;
1366;SDS011;16877;48.810;9.282;2023-03-25T02:27:47;3.07;;;1.20;;
1366;SDS011;16877;48.810;9.282;2023-03-25T02:30:37;2.27;;;0.83;;
1366;SDS011;16877;48.810;9.282;2023-03-25T02:36:33;3.50;;;1.20;;
1366;SDS011;16877;48.810;9.282;2023-03-25T02:39:15;2.73;;;1.10;;
1366;SDS011;16877;48.810;9.282;2023-03-25T02:41:49;4.67;;;1.33;;
1366;SDS011;16877;48.810;9.282;2023-03-25T02:44:21;2.40;;;1.30;;
1366;SDS011;16877;48.810;9.282;2023-03-25T02:46:55;2.50;;;1.00;;
1366;SDS011;16877;48.810;9.282;2023-03-25T02:49:26;2.93;;;1.00;;
1366;SDS011;16877;48.810;9.282;2023-03-25T02:51:57;2.43;;;1.00;;
1366;SDS011;16877;48.810;9.282;2023-03-25T02:54:32;1.80;;;0.80;;
1366;SDS011;16877;48.810;9.282;2023-03-25T02:57:01;2.00;;;0.90;;
1366;SDS011;16877;48.810;9.282;2023-03-25T02:59:29;2.20;;;0.93;;
1366;SDS011;16877;48.810;9.282;2023-03-25T03:02:03;2.07;;;0.70;;
1366;SDS011;16877;48.810;9.282;2023-03-25T03:04:43;3.83;;;0.90;;
1366;SDS011;16877;48.810;9.282;2023-03-25T03:07:13;1.70;;;0.60;;
1366;SDS011;16877;48.810;9.282;2023-03-25T03:09:49;2.40;;;0.90;;
1366;SDS011;16877;48.810;9.282;2023-03-25T03:12:33;2.77;;;0.90;;
1366;SDS011;16877;48.810;9.282;2023-03-25T03:15:15;1.60;;;0.50;;
1366;SDS011;16877;48.810;9.282;2023-03-25T03:17:56;2.33;;;0.70;;
1366;SDS011;16877;48.810;9.282;2023-03-25T03:20:33;1.80;;;0.60;;
1366;SDS011;16877;48.810;9.282;2023-03-25T03:23:07;2.30;;;0.70;;
1366;SDS011;16877;48.810;9.282;2023-03-25T03:25:39;1.90;;;0.60;;
1366;SDS011;16877;48.810;9.282;2023-03-25T03:28:13;3.03;;;0.90;;
1366;SDS011;16877;48.810;9.282;2023-03-25T03:30:47;1.67;;;0.70;;
1366;SDS011;16877;48.810;9.282;2023-03-25T03:33:18;1.83;;;0.77;;
1366;SDS011;16877;48.810;9.282;2023-03-25T03:35:51;2.17;;;0.80;;
1366;SDS011;16877;48.810;9.282;2023-03-25T03:38:26;2.33;;;0.73;;
1366;SDS011;16877;48.810;9.282;2023-03-25T03:41:02;1.87;;;0.70;;
1366;SDS011;16877;48.810;9.282;2023-03-25T03:43:34;1.77;;;0.60;;
1366;SDS011;16877;48.810;9.282;2023-03-25T03:46:11;1.83;;;0.80;;
1366;SDS011;16877;48.810;9.282;2023-03-25T03:48:43;2.60;;;0.90;;
1366;SDS011;16877;48.810;9.282;2023-03-25T03:51:13;2.00;;;0.80;;
1366;SDS011;16877;48.810;9.282;2023-03-25T03:53:46;2.17;;;0.70;;
1366;SDS011;16877;48.810;9.282;2023-03-25T03:56:20;2.43;;;0.80;;
1366;SDS011;16877;48.810;9.282;2023-03-25T03:58:51;1.87;;;0.63;;
1366;SDS011;16877;48.810;9.282;2023-03-25T04:01:24;1.80;;;0.70;;
1366;SDS011;16877;48.810;9.282;2023-03-25T04:03:56;1.80;;;0.70;;
1366;SDS011;16877;48.810;9.282;2023-03-25T04:06:26;1.70;;;0.60;;
1366;SDS011;16877;48.810;9.282;2023-03-25T04:08:59;1.60;;;0.60;;
1366;SDS011;16877;48.810;9.282;2023-03-25T04:11:34;2.50;;;0.77;;
1366;SDS011;16877;48.810;9.282;2023-03-25T04:14:06;1.80;;;0.80;;
1366;SDS011;16877;48.810;9.282;2023-03-25T04:16:35;1.70;;;0.60;;
1366;SDS011;16877;48.810;9.282;2023-03-25T04:19:03;2.80;;;0.50;;
1366;SDS011;16877;48.810;9.282;2023-03-25T04:21:30;2.33;;;0.73;;
1366;SDS011;16877;48.810;9.282;2023-03-25T04:23:58;4.13;;;0.67;;
1366;SDS011;16877;48.810;9.282;2023-03-25T04:26:26;2.33;;;0.57;;
1366;SDS011;16877;48.810;9.282;2023-03-25T04:28:59;1.70;;;0.60;;
1366;SDS011;16877;48.810;9.282;2023-03-25T04:31:27;1.70;;;0.53;;
1366;SDS011;16877;48.810;9.282;2023-03-25T04:33:56;1.60;;;0.50;;
1366;SDS011;16877;48.810;9.282;2023-03-25T04:36:24;2.00;;;0.57;;
1366;SDS011;16877;48.810;9.282;2023-03-25T04:38:53;1.73;;;0.50;;
1366;SDS011;16877;48.810;9.282;2023-03-25T04:41:21;1.40;;;0.40;;
1366;SDS011;16877;48.810;9.282;2023-03-25T04:43:48;2.20;;;0.60;;
1366;SDS011;16877;48.810;9.282;2023-03-25T04:46:17;1.93;;;0.57;;
1366;SDS011;16877;48.810;9.282;2023-03-25T04:48:45;2.00;;;0.63;;
1366;SDS011;16877;48.810;9.282;2023-03-25T04:51:13;1.73;;;0.60;;
1366;SDS011;16877;48.810;9.282;2023-03-25T04:53:40;1.80;;;0.63;;
1366;SDS011;16877;48.810;9.282;2023-03-25T04:56:09;3.30;;;1.03;;
1366;SDS011;16877;48.810;9.282;2023-03-25T04:58:40;1.70;;;0.50;;
1366;SDS011;16877;48.810;9.282;2023-03-25T05:01:07;2.47;;;0.70;;
1366;SDS011;16877;48.810;9.282;2023-03-25T05:03:43;1.80;;;0.40;;
1366;SDS011;16877;48.810;9.282;2023-03-25T05:06:14;1.80;;;0.60;;
1366;SDS011;16877;48.810;9.282;2023-03-25T05:08:41;1.93;;;0.70;;
1366;SDS011;16877;48.810;9.282;2023-03-25T05:11:09;2.53;;;0.87;;
1366;SDS011;16877;48.810;9.282;2023-03-25T05:13:36;2.67;;;1.00;;
1366;SDS011;16877;48.810;9.282;2023-03-25T05:16:04;2.07;;;0.67;;
1366;SDS011;16877;48.810;9.282;2023-03-25T05:18:32;2.87;;;0.80;;
1366;SDS011;16877;48.810;9.282;2023-03-25T05:21:01;1.60;;;0.57;;
1366;SDS011;16877;48.810;9.282;2023-03-25T05:23:29;3.80;;;0.83;;
1366;SDS011;16877;48.810;9.282;2023-03-25T05:25:56;3.23;;;0.90;;
1366;SDS011;16877;48.810;9.282;2023-03-25T05:28:24;1.70;;;0.60;;
1366;SDS011;16877;48.810;9.282;2023-03-25T05:30:52;2.77;;;1.10;;
1366;SDS011;16877;48.810;9.282;2023-03-25T05:33:20;1.90;;;0.73;;
1366;SDS011;16877;48.810;9.282;2023-03-25T05:35:48;2.47;;;1.00;;
1366;SDS011;16877;48.810;9.282;2023-03-25T05:38:17;4.57;;;1.40;;
1366;SDS011;16877;48.810;9.282;2023-03-25T05:40:45;2.37;;;1.10;;
1366;SDS011;16877;48.810;9.282;2023-03-25T05:43:12;2.93;;;1.10;;
1366;SDS011;16877;48.810;9.282;2023-03-25T05:45:55;2.40;;;1.10;;
1366;SDS011;16877;48.810;9.282;2023-03-25T05:48:23;4.40;;;1.20;;
1366;SDS011;16877;48.810;9.282;2023-03-25T05:50:50;3.90;;;1.20;;
1366;SDS011;16877;48.810;9.282;2023-03-25T05:53:22;2.20;;;0.90;;
1366;SDS011;16877;48.810;9.282;2023-03-25T05:55:51;4.90;;;1.27;;
1366;SDS011;16877;48.810;9.282;2023-03-25T05:58:28;3.23;;;1.20;;
1366;SDS011;16877;48.810;9.282;2023-03-25T06:00:57;2.50;;;0.97;;
1366;SDS011;16877;48.810;9.282;2023-03-25T06:03:37;3.97;;;1.43;;
1366;SDS011;16877;48.810;9.282;2023-03-25T06:06:06;2.27;;;1.20;;
1366;SDS011;16877;48.810;9.282;2023-03-25T06:08:45;3.53;;;1.40;;
1366;SDS011;16877;48.810;9.282;2023-03-25T06:11:18;3.10;;;1.27;;
1366;SDS011;16877;48.810;9.282;2023-03-25T06:13:46;3.37;;;1.47;;
1366;SDS011;16877;48.810;9.282;2023-03-25T06:16:16;4.30;;;1.60;;
1366;SDS011;16877;48.810;9.282;2023-03-25T06:18:48;3.00;;;1.27;;
1366;SDS011;16877;48.810;9.282;2023-03-25T06:21:23;3.93;;;1.10;;
1366;SDS011;16877;48.810;9.282;2023-03-25T06:23:53;2.93;;;1.37;;
1366;SDS011;16877;48.810;9.282;2023-03-25T06:26:21;3.03;;;1.10;;
1366;SDS011;16877;48.810;9.282;2023-03-25T06:29:03;3.03;;;0.93;;
1366;SDS011;16877;48.810;9.282;2023-03-25T06:31:32;2.97;;;1.33;;
1366;SDS011;16877;48.810;9.282;2023-03-25T06:34:01;5.20;;;1.63;;
1366;SDS011;16877;48.810;9.282;2023-03-25T06:36:29;2.53;;;0.80;;
1366;SDS011;16877;48.810;9.282;2023-03-25T06:39:00;4.07;;;1.43;;
1366;SDS011;16877;48.810;9.282;2023-03-25T06:41:30;2.67;;;1.03;;
1366;SDS011;16877;48.810;9.282;2023-03-25T06:43:59;3.60;;;1.07;;
1366;SDS011;16877;48.810;9.282;2023-03-25T06:46:27;3.90;;;1.37;;
1366;SDS011;16877;48.810;9.282;2023-03-25T06:49:01;3.63;;;1.60;;
1366;SDS011;16877;48.810;9.282;2023-03-25T06:51:36;3.60;;;1.47;;
1366;SDS011;16877;48.810;9.282;2023-03-25T06:54:06;3.90;;;1.30;;
1366;SDS011;16877;48.810;9.282;2023-03-25T06:56:33;2.97;;;1.10;;
1366;SDS011;16877;48.810;9.282;2023-03-25T06:59:01;3.20;;;1.37;;
1366;SDS011;16877;48.810;9.282;2023-03-25T07:01:29;3.73;;;1.50;;
1366;SDS011;16877;48.810;9.282;2023-03-25T07:03:57;5.10;;;1.70;;
1366;SDS011;16877;48.810;9.282;2023-03-25T07:06:25;3.93;;;1.63;;
1366;SDS011;16877;48.810;9.282;2023-03-25T07:08:52;3.10;;;1.23;;
1366;SDS011;16877;48.810;9.282;2023-03-25T07:11:22;3.00;;;1.50;;
1366;SDS011;16877;48.810;9.282;2023-03-25T07:13:52;3.20;;;1.37;;
1366;SDS011;16877;48.810;9.282;2023-03-25T07:16:19;3.40;;;1.60;;
1366;SDS011;16877;48.810;9.282;2023-03-25T07:18:47;2.30;;;1.40;;
1366;SDS011;16877;48.810;9.282;2023-03-25T07:21:14;3.60;;;1.63;;
1366;SDS011;16877;48.810;9.282;2023-03-25T07:23:42;3.97;;;1.30;;
1366;SDS011;16877;48.810;9.282;2023-03-25T07:26:09;4.20;;;1.93;;
1366;SDS011;16877;48.810;9.282;2023-03-25T07:28:42;3.20;;;1.67;;
1366;SDS011;16877;48.810;9.282;2023-03-25T07:31:12;2.87;;;1.63;;
1366;SDS011;16877;48.810;9.282;2023-03-25T07:33:41;3.23;;;1.73;;
1366;SDS011;16877;48.810;9.282;2023-03-25T07:36:11;7.43;;;2.10;;
1366;SDS011;16877;48.810;9.282;2023-03-25T07:38:39;3.20;;;1.33;;
1366;SDS011;16877;48.810;9.282;2023-03-25T07:41:07;2.60;;;1.70;;
1366;SDS011;16877;48.810;9.282;2023-03-25T07:43:35;3.33;;;1.20;;
1366;SDS011;16877;48.810;9.282;2023-03-25T07:46:19;2.70;;;1.47;;
1366;SDS011;16877;48.810;9.282;2023-03-25T07:48:46;3.70;;;1.37;;
1366;SDS011;16877;48.810;9.282;2023-03-25T07:51:14;4.03;;;1.63;;
1366;SDS011;16877;48.810;9.282;2023-03-25T07:53:41;4.20;;;1.53;;
1366;SDS011;16877;48.810;9.282;2023-03-25T07:56:11;3.17;;;1.37;;
1366;SDS011;16877;48.810;9.282;2023-03-25T07:58:38;6.57;;;1.60;;
1366;SDS011;16877;48.810;9.282;2023-03-25T08:01:06;3.10;;;1.37;;
1366;SDS011;16877;48.810;9.282;2023-03-25T08:03:35;2.33;;;1.43;;
1366;SDS011;16877;48.810;9.282;2023-03-25T08:06:04;3.73;;;1.50;;
1366;SDS011;16877;48.810;9.282;2023-03-25T08:08:32;2.67;;;1.30;;
1366;SDS011;16877;48.810;9.282;2023-03-25T08:10:59;3.93;;;1.57;;
1366;SDS011;16877;48.810;9.282;2023-03-25T08:13:27;2.90;;;1.30;;
1366;SDS011;16877;48.810;9.282;2023-03-25T08:15:55;2.97;;;1.33;;
1366;SDS011;16877;48.810;9.282;2023-03-25T08:18:23;3.00;;;1.20;;
1366;SDS011;16877;48.810;9.282;2023-03-25T08:20:52;2.77;;;1.20;;
1366;SDS011;16877;48.810;9.282;2023-03-25T08:23:19;2.10;;;0.87;;
1366;SDS011;16877;48.810;9.282;2023-03-25T08:25:47;2.47;;;0.93;;
1366;SDS011;16877;48.810;9.282;2023-03-25T08:28:17;2.77;;;1.00;;
1366;SDS011;16877;48.810;9.282;2023-03-25T08:30:47;2.67;;;1.00;;
1366;SDS011;16877;48.810;9.282;2023-03-25T08:33:19;2.17;;;1.10;;
1366;SDS011;16877;48.810;9.282;2023-03-25T08:35:47;2.50;;;0.97;;
1366;SDS011;16877;48.810;9.282;2023-03-25T08:41:51;3.30;;;0.90;;
1366;SDS011;16877;48.810;9.282;2023-03-25T08:44:19;3.20;;;1.23;;
1366;SDS011;16877;48.810;9.282;2023-03-25T08:46:46;2.60;;;1.40;;
1366;SDS011;16877;48.810;9.282;2023-03-25T08:49:15;3.53;;;1.40;;
1366;SDS011;16877;48.810;9.282;2023-03-25T08:51:43;2.43;;;0.90;;
1366;SDS011;16877;48.810;9.282;2023-03-25T08:54:22;2.00;;;0.87;;
1366;SDS011;16877;48.810;9.282;2023-03-25T08:56:50;2.83;;;1.20;;
1366;SDS011;16877;48.810;9.282;2023-03-25T08:59:18;2.90;;;1.27;;
1366;SDS011;16877;48.810;9.282;2023-03-25T09:01:50;1.70;;;0.60;;
1366;SDS011;16877;48.810;9.282;2023-03-25T09:04:20;1.70;;;0.50;;
1366;SDS011;16877;48.810;9.282;2023-03-25T09:06:52;2.03;;;0.57;;
1366;SDS011;16877;48.810;9.282;2023-03-25T09:09:20;1.50;;;0.50;;
1366;SDS011;16877;48.810;9.282;2023-03-25T09:12:02;1.63;;;0.53;;
1366;SDS011;16877;48.810;9.282;2023-03-25T09:14:43;1.50;;;0.40;;
1366;SDS011;16877;48.810;9.282;2023-03-25T09:17:11;2.10;;;0.47;;
1366;SDS011;16877;48.810;9.282;2023-03-25T09:19:39;1.97;;;0.60;;
1366;SDS011;16877;48.810;9.282;2023-03-25T09:22:06;1.90;;;0.90;;
1366;SDS011;16877;48.810;9.282;2023-03-25T09:24:33;1.90;;;0.83;;
1366;SDS011;16877;48.810;9.282;2023-03-25T09:27:04;1.93;;;0.50;;
1366;SDS011;16877;48.810;9.282;2023-03-25T09:29:31;3.23;;;0.80;;
1366;SDS011;16877;48.810;9.282;2023-03-25T09:31:59;2.27;;;0.80;;
1366;SDS011;16877;48.810;9.282;2023-03-25T09:34:26;1.70;;;0.50;;
1366;SDS011;16877;48.810;9.282;2023-03-25T09:36:58;2.10;;;0.73;;
1366;SDS011;16877;48.810;9.282;2023-03-25T09:39:27;1.70;;;0.60;;
1366;SDS011;16877;48.810;9.282;2023-03-25T09:42:12;1.70;;;0.60;;
1366;SDS011;16877;48.810;9.282;2023-03-25T09:44:57;2.00;;;0.67;;
1366;SDS011;16877;48.810;9.282;2023-03-25T09:47:37;1.93;;;0.77;;
1366;SDS011;16877;48.810;9.282;2023-03-25T09:50:11;1.97;;;0.87;;
1366;SDS011;16877;48.810;9.282;2023-03-25T09:52:58;2.30;;;0.80;;
1366;SDS011;16877;48.810;9.282;2023-03-25T09:56:00;2.57;;;0.90;;
1366;SDS011;16877;48.810;9.282;2023-03-25T09:59:02;1.60;;;0.70;;
1366;SDS011;16877;48.810;9.282;2023-03-25T10:01:51;3.63;;;0.80;;
1366;SDS011;16877;48.810;9.282;2023-03-25T10:07:33;2.97;;;0.90;;
1366;SDS011;16877;48.810;9.282;2023-03-25T10:10:26;1.70;;;0.70;;
1366;SDS011;16877;48.810;9.282;2023-03-25T10:13:03;2.30;;;0.80;;
1366;SDS011;16877;48.810;9.282;2023-03-25T10:15:40;3.30;;;0.77;;
1366;SDS011;16877;48.810;9.282;2023-03-25T10:18:20;2.30;;;0.80;;
1366;SDS011;16877;48.810;9.282;2023-03-25T10:20:58;2.03;;;0.93;;
1366;SDS011;16877;48.810;9.282;2023-03-25T10:23:35;2.43;;;1.00;;
1366;SDS011;16877;48.810;9.282;2023-03-25T10:26:10;5.60;;;0.93;;
1366;SDS011;16877;48.810;9.282;2023-03-25T10:28:46;1.80;;;0.80;;
1366;SDS011;16877;48.810;9.282;2023-03-25T10:31:19;3.00;;;0.83;;
1366;SDS011;16877;48.810;9.282;2023-03-25T10:33:52;3.50;;;0.90;;
1366;SDS011;16877;48.810;9.282;2023-03-25T10:36:26;2.07;;;0.77;;
1366;SDS011;16877;48.810;9.282;2023-03-25T10:39:01;2.20;;;0.63;;
1366;SDS011;16877;48.810;9.282;2023-03-25T10:41:39;1.60;;;0.77;;
1366;SDS011;16877;48.810;9.282;2023-03-25T10:44:46;2.30;;;0.70;;
1366;SDS011;16877;48.810;9.282;2023-03-25T10:47:29;2.43;;;1.00;;
1366;SDS011;16877;48.810;9.282;2023-03-25T10:50:16;2.70;;;0.70;;
1366;SDS011;16877;48.810;9.282;2023-03-25T10:53:19;1.70;;;0.70;;
1366;SDS011;16877;48.810;9.282;2023-03-25T10:56:18;1.57;;;0.60;;
1366;SDS011;16877;48.810;9.282;2023-03-25T10:58:49;1.67;;;0.50;;
1366;SDS011;16877;48.810;9.282;2023-03-25T11:01:20;2.67;;;0.70;;
1366;SDS011;16877;48.810;9.282;2023-03-25T11:03:58;2.10;;;0.70;;
1366;SDS011;16877;48.810;9.282;2023-03-25T11:06:40;1.90;;;0.90;;
1366;SDS011;16877;48.810;9.282;2023-03-25T11:09:11;3.40;;;0.97;;
1366;SDS011;16877;48.810;9.282;2023-03-25T11:11:49;2.53;;;0.97;;
1366;SDS011;16877;48.810;9.282;2023-03-25T11:14:20;2.00;;;0.87;;
1366;SDS011;16877;48.810;9.282;2023-03-25T11:16:58;1.97;;;0.80;;
1366;SDS011;16877;48.810;9.282;2023-03-25T11:19:30;2.10;;;0.70;;
1366;SDS011;16877;48.810;9.282;2023-03-25T11:22:06;2.40;;;0.70;;
1366;SDS011;16877;48.810;9.282;2023-03-25T11:24:39;2.37;;;0.90;;
1366;SDS011;16877;48.810;9.282;2023-03-25T11:27:14;3.53;;;1.70;;
1366;SDS011;16877;48.810;9.282;2023-03-25T11:29:49;2.67;;;1.40;;
1366;SDS011;16877;48.810;9.282;2023-03-25T11:32:31;3.03;;;1.00;;
1366;SDS011;16877;48.810;9.282;2023-03-25T11:35:07;1.50;;;0.50;;
1366;SDS011;16877;48.810;9.282;2023-03-25T11:37:43;1.97;;;0.80;;
1366;SDS011;16877;48.810;9.282;2023-03-25T11:40:14;2.00;;;0.70;;
1366;SDS011;16877;48.810;9.282;2023-03-25T11:42:43;2.10;;;0.73;;
1366;SDS011;16877;48.810;9.282;2023-03-25T11:45:23;2.10;;;0.70;;
1366;SDS011;16877;48.810;9.282;2023-03-25T11:48:11;2.40;;;0.83;;
1366;SDS011;16877;48.810;9.282;2023-03-25T11:50:56;2.00;;;0.83;;
1366;SDS011;16877;48.810;9.282;2023-03-25T11:53:30;3.73;;;1.00;;
1366;SDS011;16877;48.810;9.282;2023-03-25T11:55:59;2.20;;;0.60;;
1366;SDS011;16877;48.810;9.282;2023-03-25T11:58:29;1.50;;;0.60;;
1366;SDS011;16877;48.810;9.282;2023-03-25T12:01:04;1.70;;;0.80;;
1366;SDS011;16877;48.810;9.282;2023-03-25T12:03:42;2.73;;;0.90;;
1366;SDS011;16877;48.810;9.282;2023-03-25T12:06:31;2.37;;;0.80;;
1366;SDS011;16877;48.810;9.282;2023-03-25T12:08:58;1.97;;;0.80;;
1366;SDS011;16877;48.810;9.282;2023-03-25T12:12:14;2.07;;;0.73;;
1366;SDS011;16877;48.810;9.282;2023-03-25T12:14:59;7.23;;;1.80;;
1366;SDS011;16877;48.810;9.282;2023-03-25T12:17:40;2.17;;;1.33;;
1366;SDS011;16877;48.810;9.282;2023-03-25T12:20:24;5.40;;;1.37;;
1366;SDS011;16877;48.810;9.282;2023-03-25T12:25:53;2.23;;;0.90;;
1366;SDS011;16877;48.810;9.282;2023-03-25T12:28:32;2.73;;;1.27;;
1366;SDS011;16877;48.810;9.282;2023-03-25T12:31:22;3.10;;;1.00;;
1366;SDS011;16877;48.810;9.282;2023-03-25T12:34:05;2.93;;;1.33;;
1366;SDS011;16877;48.810;9.282;2023-03-25T12:36:45;1.80;;;0.70;;
1366;SDS011;16877;48.810;9.282;2023-03-25T12:39:26;2.97;;;0.80;;
1366;SDS011;16877;48.810;9.282;2023-03-25T12:42:05;2.67;;;1.00;;
1366;SDS011;16877;48.810;9.282;2023-03-25T12:44:50;2.33;;;0.63;;
1366;SDS011;16877;48.810;9.282;2023-03-25T12:47:35;2.30;;;1.00;;
1366;SDS011;16877;48.810;9.282;2023-03-25T12:50:08;2.37;;;0.80;;
1366;SDS011;16877;48.810;9.282;2023-03-25T12:52:51;2.50;;;0.67;;
1366;SDS011;16877;48.810;9.282;2023-03-25T12:55:31;2.80;;;0.87;;
1366;SDS011;16877;48.810;9.282;2023-03-25T12:58:18;2.30;;;0.77;;
1366;SDS011;16877;48.810;9.282;2023-03-25T13:01:08;2.23;;;0.80;;
1366;SDS011;16877;48.810;9.282;2023-03-25T13:03:51;2.10;;;0.80;;
1366;SDS011;16877;48.810;9.282;2023-03-25T13:06:36;1.90;;;0.87;;
1366;SDS011;16877;48.810;9.282;2023-03-25T13:09:10;2.47;;;0.80;;
1366;SDS011;16877;48.810;9.282;2023-03-25T13:11:49;2.07;;;0.77;;
1366;SDS011;16877;48.810;9.282;2023-03-25T13:14:20;1.90;;;0.60;;
1366;SDS011;16877;48.810;9.282;2023-03-25T13:16:51;2.30;;;0.90;;
1366;SDS011;16877;48.810;9.282;2023-03-25T13:19:24;4.47;;;1.00;;
1366;SDS011;16877;48.810;9.282;2023-03-25T13:22:12;2.00;;;0.50;;
1366;SDS011;16877;48.810;9.282;2023-03-25T13:24:50;2.37;;;0.80;;
1366;SDS011;16877;48.810;9.282;2023-03-25T13:27:35;2.57;;;1.07;;
1366;SDS011;16877;48.810;9.282;2023-03-25T13:30:11;2.43;;;0.60;;
1366;SDS011;16877;48.810;9.282;2023-03-25T13:32:43;2.10;;;0.80;;
1366;SDS011;16877;48.810;9.282;2023-03-25T13:35:16;3.03;;;0.97;;
1366;SDS011;16877;48.810;9.282;2023-03-25T13:37:49;2.37;;;0.90;;
1366;SDS011;16877;48.810;9.282;2023-03-25T13:40:21;3.03;;;1.10;;
1366;SDS011;16877;48.810;9.282;2023-03-25T13:42:57;1.87;;;0.70;;
1366;SDS011;16877;48.810;9.282;2023-03-25T13:45:27;2.70;;;1.30;;
1366;SDS011;16877;48.810;9.282;2023-03-25T13:48:04;2.30;;;0.90;;
1366;SDS011;16877;48.810;9.282;2023-03-25T13:50:46;2.00;;;0.80;;
1366;SDS011;16877;48.810;9.282;2023-03-25T13:53:16;2.53;;;0.80;;
1366;SDS011;16877;48.810;9.282;2023-03-25T13:55:49;2.90;;;1.03;;
1366;SDS011;16877;48.810;9.282;2023-03-25T13:58:42;2.40;;;1.30;;
1366;SDS011;16877;48.810;9.282;2023-03-25T14:01:29;2.00;;;0.80;;
1366;SDS011;16877;48.810;9.282;2023-03-25T14:04:34;2.17;;;0.70;;
1366;SDS011;16877;48.810;9.282;2023-03-25T14:07:34;2.03;;;0.40;;
1366;SDS011;16877;48.810;9.282;2023-03-25T14:10:27;3.40;;;0.80;;
1366;SDS011;16877;48.810;9.282;2023-03-25T14:13:04;2.27;;;0.90;;
1366;SDS011;16877;48.810;9.282;2023-03-25T14:15:52;2.63;;;0.90;;
1366;SDS011;16877;48.810;9.282;2023-03-25T14:18:25;2.60;;;0.80;;
1366;SDS011;16877;48.810;9.282;2023-03-25T14:20:56;2.27;;;0.80;;
1366;SDS011;16877;48.810;9.282;2023-03-25T14:23:27;1.90;;;0.90;;
1366;SDS011;16877;48.810;9.282;2023-03-25T14:25:57;2.67;;;0.97;;
1366;SDS011;16877;48.810;9.282;2023-03-25T14:28:34;4.93;;;1.30;;
1366;SDS011;16877;48.810;9.282;2023-03-25T14:34:11;2.23;;;0.70;;
1366;SDS011;16877;48.810;9.282;2023-03-25T14:39:57;3.53;;;0.73;;
1366;SDS011;16877;48.810;9.282;2023-03-25T14:45:32;2.63;;;1.07;;
1366;SDS011;16877;48.810;9.282;2023-03-25T14:48:27;2.30;;;0.80;;
1366;SDS011;16877;48.810;9.282;2023-03-25T14:51:09;3.50;;;0.97;;
1366;SDS011;16877;48.810;9.282;2023-03-25T14:53:50;4.73;;;1.20;;
1366;SDS011;16877;48.810;9.282;2023-03-25T14:56:21;2.30;;;1.10;;
1366;SDS011;16877;48.810;9.282;2023-03-25T14:58:51;2.67;;;0.90;;
1366;SDS011;16877;48.810;9.282;2023-03-25T15:01:23;2.40;;;0.90;;
1366;SDS011;16877;48.810;9.282;2023-03-25T15:04:22;3.73;;;1.20;;
1366;SDS011;16877;48.810;9.282;2023-03-25T15:06:55;2.53;;;0.90;;
1366;SDS011;16877;48.810;9.282;2023-03-25T15:09:26;2.93;;;1.17;;
1366;SDS011;16877;48.810;9.282;2023-03-25T15:11:57;2.60;;;0.90;;
1366;SDS011;16877;48.810;9.282;2023-03-25T15:14:30;3.30;;;1.10;;
1366;SDS011;16877;48.810;9.282;2023-03-25T15:17:02;3.07;;;1.10;;
1366;SDS011;16877;48.810;9.282;2023-03-25T15:26:01;2.70;;;1.17;;
1366;SDS011;16877;48.810;9.282;2023-03-25T15:28:35;3.30;;;1.30;;
1366;SDS011;16877;48.810;9.282;2023-03-25T15:31:27;3.20;;;1.90;;
1366;SDS011;16877;48.810;9.282;2023-03-25T15:34:08;3.47;;;0.80;;
1366;SDS011;16877;48.810;9.282;2023-03-25T15:36:46;3.77;;;1.10;;
1366;SDS011;16877;48.810;9.282;2023-03-25T15:39:32;2.37;;;0.90;;
1366;SDS011;16877;48.810;9.282;2023-03-25T15:45:48;3.70;;;1.57;;
1366;SDS011;16877;48.810;9.282;2023-03-25T15:48:40;4.97;;;1.60;;
1366;SDS011;16877;48.810;9.282;2023-03-25T15:51:29;2.73;;;1.30;;
1366;SDS011;16877;48.810;9.282;2023-03-25T15:54:17;3.00;;;1.40;;
1366;SDS011;16877;48.810;9.282;2023-03-25T15:56:55;10.70;;;4.67;;
1366;SDS011;16877;48.810;9.282;2023-03-25T15:59:30;10.10;;;5.50;;
1366;SDS011;16877;48.810;9.282;2023-03-25T16:02:03;10.07;;;5.17;;
1366;SDS011;16877;48.810;9.282;2023-03-25T16:04:37;10.43;;;5.30;;
1366;SDS011;16877;48.810;9.282;2023-03-25T16:07:06;9.57;;;5.37;;
1366;SDS011;16877;48.810;9.282;2023-03-25T16:09:38;8.90;;;5.50;;
1366;SDS011;16877;48.810;9.282;2023-03-25T16:12:16;5.73;;;3.20;;
1366;SDS011;16877;48.810;9.282;2023-03-25T16:14:46;5.83;;;3.43;;
1366;SDS011;16877;48.810;9.282;2023-03-25T16:17:15;6.70;;;3.67;;